This is the latest recevied weather packets stored in our database for station/object K6LOT-13. If no packets are shown the sender has not sent any weather packets the latest 1 day(s).
| Time | Temp. | Humidity | Pressure | Rain* | Wind** | Luminosity | Snow |
|---|---|---|---|---|---|---|---|
| 1778026656 | 18.33° C | 57% | 1015.5 hPa | 0 mm | - | - | - |
| 1778026010 | 18.33° C | 57% | 1015.5 hPa | 0 mm | - | - | - |
| 1778025704 | 18.33° C | 58% | 1015.5 hPa | 0 mm | - | - | - |
| 1778025394 | 18.33° C | 58% | 1015.5 hPa | 0 mm | - | - | - |
| 1778025084 | 18.33° C | 58% | 1015.5 hPa | 0 mm | - | - | - |
| 1778023859 | 18.89° C | 56% | 1015.7 hPa | 0 mm | - | - | - |
| 1778023549 | 18.89° C | 56% | 1015.7 hPa | 0 mm | - | - | - |
| 1778022630 | 18.89° C | 55% | 1015.7 hPa | 0 mm | - | - | - |
| 1778021088 | 19.44° C | 53% | 1015.8 hPa | 0 mm | - | - | - |
| 1778017698 | 20° C | 47% | 1015.9 hPa | 0 mm | - | - | - |
| 1778016773 | 20.56° C | 48% | 1016 hPa | 0 mm | - | - | - |
| 1778016461 | 20.56° C | 48% | 1016 hPa | 0 mm | - | - | - |
| 1778016152 | 20.56° C | 48% | 1016 hPa | 0 mm | - | - | - |
| 1778015845 | 20.56° C | 48% | 1016 hPa | 0 mm | - | - | - |
| 1778014616 | 20.56° C | 46% | 1016.1 hPa | 0 mm | - | - | - |
| 1778014310 | 20.56° C | 46% | 1016.1 hPa | 0 mm | - | - | - |
| 1778012780 | 21.11° C | 46% | 1016 hPa | 0 mm | - | - | - |
| 1778009720 | 20° C | 52% | 1016.1 hPa | 0 mm | - | - | - |
| 1778008829 | 20° C | 54% | 1016.2 hPa | 0 mm | - | - | - |
| 1778007875 | 19.44° C | 55% | 1016.3 hPa | 0 mm | - | - | - |
| 1778007599 | 19.44° C | 55% | 1016.3 hPa | 0 mm | - | - | - |
* Rain latest hour (hover to see other rain measurements)
** Current wind speed in m/s (hover to see current wind gust speed)